Saipan Mariana Islands, Northern Mariana Islands
Current Conditions -  °F | °C
As of 8:54 PM on Thursday 23 Oct 2014 (Local Time) from PGSN Reporting Station
Scattered Clouds Scattered Clouds  
Wind Chill: 82°   Ceiling: Unl
Heat Index: 90°   Visibility: 10mi
Dew Point: 77°   Wind: 7mph
Humidity: 85%   Direction: 110°ESE
Pressure: 29.87"   Gusts: NA
Location:  15.182°N, 145.755°E
Report Text: PGSN 231054Z 11006KT 10SM SCT017 28/25 A2987 RMK AO2 SLP137 T02780250
Loading
Personal Weather Stations






























Interactive Weather Map
Tropical Storm Tracking
New forecast layout! Learn more

10-Day Weather Forecast

Advertisements
Track Severe Weather on mobile